sensor_id;sensor_type;location;lat;lon;timestamp;pressure;altitude;pressure_sealevel;temperature;humidity
72612;BME280;60655;52.182;4.474;2022-09-02T00:00:55;101823.41;;;18.47;52.50
72612;BME280;60655;52.182;4.474;2022-09-02T00:03:00;101810.34;;;18.55;51.40
72612;BME280;60655;52.182;4.474;2022-09-02T00:05:01;101826.97;;;18.36;51.47
72612;BME280;60655;52.182;4.474;2022-09-02T00:07:02;101826.56;;;18.44;52.53
72612;BME280;60655;52.182;4.474;2022-09-02T00:09:05;101819.72;;;18.36;53.02
72612;BME280;60655;52.182;4.474;2022-09-02T00:11:08;101823.31;;;18.42;52.05
72612;BME280;60655;52.182;4.474;2022-09-02T00:13:14;101819.72;;;18.36;52.71
72612;BME280;60655;52.182;4.474;2022-09-02T00:15:15;101816.44;;;18.34;52.65
72612;BME280;60655;52.182;4.474;2022-09-02T00:17:16;101812.72;;;18.35;52.56
72612;BME280;60655;52.182;4.474;2022-09-02T00:19:23;101814.00;;;18.33;52.61
72612;BME280;60655;52.182;4.474;2022-09-02T00:21:25;101813.84;;;18.39;52.46
72612;BME280;60655;52.182;4.474;2022-09-02T00:23:26;101811.56;;;18.31;52.74
72612;BME280;60655;52.182;4.474;2022-09-02T00:25:27;101813.81;;;18.22;52.22
72612;BME280;60655;52.182;4.474;2022-09-02T00:27:28;101817.25;;;18.18;52.30
72612;BME280;60655;52.182;4.474;2022-09-02T00:29:29;101811.06;;;18.17;52.50
72612;BME280;60655;52.182;4.474;2022-09-02T00:31:30;101808.28;;;18.29;52.44
72612;BME280;60655;52.182;4.474;2022-09-02T00:33:33;101807.16;;;18.25;52.23
72612;BME280;60655;52.182;4.474;2022-09-02T00:35:35;101811.38;;;18.21;52.63
72612;BME280;60655;52.182;4.474;2022-09-02T00:37:37;101804.63;;;18.18;51.25
72612;BME280;60655;52.182;4.474;2022-09-02T00:39:38;101808.19;;;18.24;51.63
72612;BME280;60655;52.182;4.474;2022-09-02T00:41:40;101810.25;;;18.17;52.00
72612;BME280;60655;52.182;4.474;2022-09-02T00:43:45;101798.97;;;18.20;51.80
72612;BME280;60655;52.182;4.474;2022-09-02T00:45:47;101811.63;;;18.19;51.08
72612;BME280;60655;52.182;4.474;2022-09-02T00:47:48;101807.03;;;18.03;51.58
72612;BME280;60655;52.182;4.474;2022-09-02T00:49:52;101798.72;;;18.05;52.18
72612;BME280;60655;52.182;4.474;2022-09-02T00:52:08;101801.56;;;17.98;52.62
72612;BME280;60655;52.182;4.474;2022-09-02T00:54:12;101787.88;;;17.83;51.29
72612;BME280;60655;52.182;4.474;2022-09-02T00:56:20;101792.28;;;17.89;52.64
72612;BME280;60655;52.182;4.474;2022-09-02T00:58:29;101793.09;;;17.90;52.42
72612;BME280;60655;52.182;4.474;2022-09-02T01:00:36;101796.91;;;17.94;52.78
72612;BME280;60655;52.182;4.474;2022-09-02T01:02:40;101795.81;;;17.78;52.64
72612;BME280;60655;52.182;4.474;2022-09-02T01:04:41;101792.41;;;17.82;52.54
72612;BME280;60655;52.182;4.474;2022-09-02T01:06:46;101795.25;;;17.76;52.28
72612;BME280;60655;52.182;4.474;2022-09-02T01:08:51;101790.13;;;17.74;52.02
72612;BME280;60655;52.182;4.474;2022-09-02T01:10:54;101791.97;;;17.74;52.32
72612;BME280;60655;52.182;4.474;2022-09-02T01:12:57;101782.16;;;17.79;52.20
72612;BME280;60655;52.182;4.474;2022-09-02T01:14:58;101783.00;;;17.68;51.87
72612;BME280;60655;52.182;4.474;2022-09-02T01:17:01;101778.66;;;17.79;52.36
72612;BME280;60655;52.182;4.474;2022-09-02T01:19:05;101782.97;;;17.80;51.96
72612;BME280;60655;52.182;4.474;2022-09-02T01:21:10;101780.81;;;17.53;52.31
72612;BME280;60655;52.182;4.474;2022-09-02T01:23:13;101775.97;;;17.79;52.93
72612;BME280;60655;52.182;4.474;2022-09-02T01:25:19;101789.44;;;17.67;52.52
72612;BME280;60655;52.182;4.474;2022-09-02T01:27:22;101774.66;;;17.81;52.85
72612;BME280;60655;52.182;4.474;2022-09-02T01:29:25;101772.34;;;17.73;52.38
72612;BME280;60655;52.182;4.474;2022-09-02T01:31:26;101775.03;;;17.73;53.39
72612;BME280;60655;52.182;4.474;2022-09-02T01:33:28;101773.28;;;17.79;53.43
72612;BME280;60655;52.182;4.474;2022-09-02T01:35:30;101772.88;;;17.87;53.86
72612;BME280;60655;52.182;4.474;2022-09-02T01:37:31;101771.31;;;17.91;53.69
72612;BME280;60655;52.182;4.474;2022-09-02T01:39:32;101776.53;;;17.81;53.12
72612;BME280;60655;52.182;4.474;2022-09-02T01:41:33;101774.94;;;17.68;53.54
72612;BME280;60655;52.182;4.474;2022-09-02T01:43:34;101765.22;;;17.79;53.52
72612;BME280;60655;52.182;4.474;2022-09-02T01:45:37;101769.19;;;17.76;54.12
72612;BME280;60655;52.182;4.474;2022-09-02T01:47:39;101757.97;;;17.79;53.95
72612;BME280;60655;52.182;4.474;2022-09-02T01:49:40;101765.69;;;17.76;54.08
72612;BME280;60655;52.182;4.474;2022-09-02T01:51:41;101756.22;;;17.73;53.84
72612;BME280;60655;52.182;4.474;2022-09-02T01:53:42;101763.00;;;17.76;53.29
72612;BME280;60655;52.182;4.474;2022-09-02T01:55:44;101763.09;;;17.81;53.95
72612;BME280;60655;52.182;4.474;2022-09-02T01:57:45;101756.50;;;17.60;53.53
72612;BME280;60655;52.182;4.474;2022-09-02T01:59:47;101752.88;;;17.66;53.92
72612;BME280;60655;52.182;4.474;2022-09-02T02:01:48;101752.44;;;17.58;53.90
72612;BME280;60655;52.182;4.474;2022-09-02T02:03:49;101753.97;;;17.53;54.10
72612;BME280;60655;52.182;4.474;2022-09-02T02:05:50;101754.38;;;17.62;54.07
72612;BME280;60655;52.182;4.474;2022-09-02T02:07:51;101753.81;;;17.60;53.27
72612;BME280;60655;52.182;4.474;2022-09-02T02:09:52;101752.81;;;17.38;52.95
72612;BME280;60655;52.182;4.474;2022-09-02T02:11:53;101753.66;;;17.38;53.26
72612;BME280;60655;52.182;4.474;2022-09-02T02:13:54;101749.56;;;17.36;53.92
72612;BME280;60655;52.182;4.474;2022-09-02T02:15:55;101744.25;;;17.24;53.77
72612;BME280;60655;52.182;4.474;2022-09-02T02:17:56;101752.72;;;17.33;54.50
72612;BME280;60655;52.182;4.474;2022-09-02T02:19:57;101749.81;;;17.34;54.06
72612;BME280;60655;52.182;4.474;2022-09-02T02:21:58;101735.47;;;17.29;54.24
72612;BME280;60655;52.182;4.474;2022-09-02T02:23:59;101736.66;;;17.21;54.30
72612;BME280;60655;52.182;4.474;2022-09-02T02:26:00;101759.44;;;17.18;55.05
72612;BME280;60655;52.182;4.474;2022-09-02T02:28:03;101743.44;;;17.12;55.25
72612;BME280;60655;52.182;4.474;2022-09-02T02:30:05;101746.34;;;17.22;54.27
72612;BME280;60655;52.182;4.474;2022-09-02T02:32:07;101745.66;;;17.15;54.83
72612;BME280;60655;52.182;4.474;2022-09-02T02:34:09;101736.31;;;17.17;54.45
72612;BME280;60655;52.182;4.474;2022-09-02T02:36:10;101737.06;;;17.01;54.32
72612;BME280;60655;52.182;4.474;2022-09-02T02:38:11;101729.13;;;16.95;54.93
72612;BME280;60655;52.182;4.474;2022-09-02T02:40:12;101738.78;;;17.07;53.85
72612;BME280;60655;52.182;4.474;2022-09-02T02:42:13;101740.75;;;17.12;54.29
72612;BME280;60655;52.182;4.474;2022-09-02T02:44:14;101729.72;;;16.97;54.99
72612;BME280;60655;52.182;4.474;2022-09-02T02:46:15;101735.75;;;17.04;54.91
72612;BME280;60655;52.182;4.474;2022-09-02T02:48:16;101733.47;;;16.96;54.96
72612;BME280;60655;52.182;4.474;2022-09-02T02:50:19;101736.38;;;16.94;54.71
72612;BME280;60655;52.182;4.474;2022-09-02T02:52:20;101739.88;;;16.95;54.92
72612;BME280;60655;52.182;4.474;2022-09-02T02:54:21;101738.47;;;16.92;55.94
72612;BME280;60655;52.182;4.474;2022-09-02T02:56:22;101730.19;;;16.94;54.90
72612;BME280;60655;52.182;4.474;2022-09-02T02:58:23;101736.25;;;17.01;54.84
72612;BME280;60655;52.182;4.474;2022-09-02T03:00:27;101732.53;;;16.78;55.24
72612;BME280;60655;52.182;4.474;2022-09-02T03:02:29;101735.22;;;16.78;55.54
72612;BME280;60655;52.182;4.474;2022-09-02T03:04:34;101727.78;;;16.69;55.65
72612;BME280;60655;52.182;4.474;2022-09-02T03:06:35;101726.50;;;16.71;56.13
72612;BME280;60655;52.182;4.474;2022-09-02T03:08:36;101730.66;;;16.79;55.16
72612;BME280;60655;52.182;4.474;2022-09-02T03:10:38;101717.06;;;16.69;55.29
72612;BME280;60655;52.182;4.474;2022-09-02T03:12:40;101719.22;;;16.60;55.43
72612;BME280;60655;52.182;4.474;2022-09-02T03:14:42;101724.25;;;16.57;56.21
72612;BME280;60655;52.182;4.474;2022-09-02T03:16:44;101722.19;;;16.70;56.05
72612;BME280;60655;52.182;4.474;2022-09-02T03:18:47;101719.81;;;16.62;55.93
72612;BME280;60655;52.182;4.474;2022-09-02T03:20:48;101723.53;;;16.61;56.53
72612;BME280;60655;52.182;4.474;2022-09-02T03:22:52;101716.91;;;16.52;56.00
72612;BME280;60655;52.182;4.474;2022-09-02T03:24:53;101716.69;;;16.42;55.98
72612;BME280;60655;52.182;4.474;2022-09-02T03:26:54;101717.97;;;16.39;56.68
72612;BME280;60655;52.182;4.474;2022-09-02T03:28:55;101722.41;;;16.45;56.11
72612;BME280;60655;52.182;4.474;2022-09-02T03:30:56;101722.13;;;16.47;56.42
72612;BME280;60655;52.182;4.474;2022-09-02T03:32:59;101726.00;;;16.63;56.73
72612;BME280;60655;52.182;4.474;2022-09-02T03:35:02;101719.81;;;16.50;56.17
72612;BME280;60655;52.182;4.474;2022-09-02T03:37:04;101713.88;;;16.37;56.53
72612;BME280;60655;52.182;4.474;2022-09-02T03:39:07;101717.16;;;16.39;56.34
72612;BME280;60655;52.182;4.474;2022-09-02T03:41:08;101702.66;;;16.28;56.86
72612;BME280;60655;52.182;4.474;2022-09-02T03:43:09;101714.00;;;16.42;57.30
72612;BME280;60655;52.182;4.474;2022-09-02T03:45:10;101708.72;;;16.24;56.96
72612;BME280;60655;52.182;4.474;2022-09-02T03:47:12;101708.38;;;16.20;56.60
72612;BME280;60655;52.182;4.474;2022-09-02T03:49:13;101709.56;;;16.12;57.12
72612;BME280;60655;52.182;4.474;2022-09-02T03:51:14;101712.56;;;16.28;57.41
72612;BME280;60655;52.182;4.474;2022-09-02T03:53:15;101711.50;;;16.17;56.96
72612;BME280;60655;52.182;4.474;2022-09-02T03:55:17;101707.56;;;16.31;57.73
72612;BME280;60655;52.182;4.474;2022-09-02T03:57:18;101709.66;;;16.29;57.81
72612;BME280;60655;52.182;4.474;2022-09-02T03:59:20;101698.25;;;16.10;58.23
72612;BME280;60655;52.182;4.474;2022-09-02T04:01:23;101706.88;;;16.24;58.33
72612;BME280;60655;52.182;4.474;2022-09-02T04:03:25;101704.19;;;16.47;57.28
72612;BME280;60655;52.182;4.474;2022-09-02T04:05:26;101701.13;;;16.20;58.61
72612;BME280;60655;52.182;4.474;2022-09-02T04:07:28;101694.88;;;16.15;57.88
72612;BME280;60655;52.182;4.474;2022-09-02T04:09:29;101695.19;;;16.18;58.29
72612;BME280;60655;52.182;4.474;2022-09-02T04:11:30;101695.34;;;16.35;58.24
72612;BME280;60655;52.182;4.474;2022-09-02T04:13:32;101690.78;;;16.47;57.53
72612;BME280;60655;52.182;4.474;2022-09-02T04:15:33;101696.03;;;16.31;57.02
72612;BME280;60655;52.182;4.474;2022-09-02T04:17:35;101692.31;;;16.32;57.75
72612;BME280;60655;52.182;4.474;2022-09-02T04:19:36;101685.06;;;16.32;57.55
72612;BME280;60655;52.182;4.474;2022-09-02T04:21:40;101685.66;;;16.34;57.83
72612;BME280;60655;52.182;4.474;2022-09-02T04:23:41;101676.69;;;16.29;57.78
72612;BME280;60655;52.182;4.474;2022-09-02T04:25:43;101678.31;;;16.30;57.29
72612;BME280;60655;52.182;4.474;2022-09-02T04:27:44;101679.00;;;16.25;57.52
72612;BME280;60655;52.182;4.474;2022-09-02T04:29:45;101678.06;;;16.31;57.57
72612;BME280;60655;52.182;4.474;2022-09-02T04:31:46;101659.53;;;16.18;57.86
72612;BME280;60655;52.182;4.474;2022-09-02T04:33:47;101673.84;;;16.00;57.72
72612;BME280;60655;52.182;4.474;2022-09-02T04:35:48;101680.50;;;16.21;58.61
72612;BME280;60655;52.182;4.474;2022-09-02T04:37:49;101686.91;;;16.20;58.95
72612;BME280;60655;52.182;4.474;2022-09-02T04:39:50;101670.97;;;16.13;58.94
72612;BME280;60655;52.182;4.474;2022-09-02T04:41:52;101680.88;;;16.13;58.71
72612;BME280;60655;52.182;4.474;2022-09-02T04:43:55;101676.19;;;15.97;58.86
72612;BME280;60655;52.182;4.474;2022-09-02T04:45:56;101677.97;;;16.14;58.41
72612;BME280;60655;52.182;4.474;2022-09-02T04:47:57;101676.09;;;16.03;58.57
72612;BME280;60655;52.182;4.474;2022-09-02T04:49:58;101677.63;;;16.11;57.51
72612;BME280;60655;52.182;4.474;2022-09-02T04:51:59;101678.88;;;15.85;59.72
72612;BME280;60655;52.182;4.474;2022-09-02T04:54:00;101644.94;;;15.79;58.84
72612;BME280;60655;52.182;4.474;2022-09-02T04:56:03;101678.06;;;16.08;58.51
72612;BME280;60655;52.182;4.474;2022-09-02T04:58:04;101677.97;;;16.14;57.84
72612;BME280;60655;52.182;4.474;2022-09-02T05:00:07;101679.00;;;16.13;58.90
72612;BME280;60655;52.182;4.474;2022-09-02T05:02:09;101669.19;;;16.19;58.77
72612;BME280;60655;52.182;4.474;2022-09-02T05:04:11;101679.13;;;16.07;58.38
72612;BME280;60655;52.182;4.474;2022-09-02T05:06:16;101666.28;;;15.97;58.65
72612;BME280;60655;52.182;4.474;2022-09-02T05:08:17;101668.25;;;15.90;59.16
72612;BME280;60655;52.182;4.474;2022-09-02T05:10:22;101668.41;;;16.07;58.85
72612;BME280;60655;52.182;4.474;2022-09-02T05:12:23;101677.00;;;15.97;59.04
72612;BME280;60655;52.182;4.474;2022-09-02T05:14:27;101672.22;;;15.99;59.40
72612;BME280;60655;52.182;4.474;2022-09-02T05:16:34;101674.66;;;15.89;59.07
72612;BME280;60655;52.182;4.474;2022-09-02T05:18:36;101675.13;;;15.86;59.19
72612;BME280;60655;52.182;4.474;2022-09-02T05:20:39;101670.34;;;15.88;60.33
72612;BME280;60655;52.182;4.474;2022-09-02T05:22:42;101673.28;;;15.86;60.04
72612;BME280;60655;52.182;4.474;2022-09-02T05:24:43;101670.47;;;15.81;60.04
72612;BME280;60655;52.182;4.474;2022-09-02T05:26:44;101682.81;;;15.94;58.12
72612;BME280;60655;52.182;4.474;2022-09-02T05:28:45;101678.97;;;15.90;59.09
72612;BME280;60655;52.182;4.474;2022-09-02T05:30:46;101676.78;;;15.87;59.19
72612;BME280;60655;52.182;4.474;2022-09-02T05:32:47;101680.38;;;15.93;59.24
72612;BME280;60655;52.182;4.474;2022-09-02T05:34:49;101681.63;;;15.90;59.39
72612;BME280;60655;52.182;4.474;2022-09-02T05:36:50;101678.72;;;15.92;59.54
72612;BME280;60655;52.182;4.474;2022-09-02T05:38:52;101679.19;;;15.88;59.09
72612;BME280;60655;52.182;4.474;2022-09-02T05:40:53;101683.41;;;15.96;59.42
72612;BME280;60655;52.182;4.474;2022-09-02T05:42:54;101677.91;;;15.91;59.31
72612;BME280;60655;52.182;4.474;2022-09-02T05:44:55;101675.59;;;15.95;59.58
72612;BME280;60655;52.182;4.474;2022-09-02T05:46:56;101682.97;;;16.11;58.67
72612;BME280;60655;52.182;4.474;2022-09-02T05:48:57;101683.75;;;16.00;59.29
72612;BME280;60655;52.182;4.474;2022-09-02T05:51:16;101678.72;;;15.92;59.08
72612;BME280;60655;52.182;4.474;2022-09-02T05:53:18;101676.44;;;16.07;58.83
72612;BME280;60655;52.182;4.474;2022-09-02T05:55:19;101672.81;;;16.01;58.83
72612;BME280;60655;52.182;4.474;2022-09-02T05:57:20;101667.91;;;15.98;58.63
72612;BME280;60655;52.182;4.474;2022-09-02T05:59:22;101670.25;;;16.06;58.71
72612;BME280;60655;52.182;4.474;2022-09-02T06:01:24;101671.53;;;16.04;58.79
72612;BME280;60655;52.182;4.474;2022-09-02T06:03:25;101669.22;;;16.07;58.93
72612;BME280;60655;52.182;4.474;2022-09-02T06:05:26;101661.88;;;16.03;59.26
72612;BME280;60655;52.182;4.474;2022-09-02T06:07:27;101667.94;;;16.10;59.05
72612;BME280;60655;52.182;4.474;2022-09-02T06:09:29;101665.38;;;16.15;59.42
72612;BME280;60655;52.182;4.474;2022-09-02T06:11:30;101676.91;;;16.15;59.53
72612;BME280;60655;52.182;4.474;2022-09-02T06:13:34;101670.84;;;16.08;59.10
72612;BME280;60655;52.182;4.474;2022-09-02T06:15:40;101672.47;;;16.21;59.23
72612;BME280;60655;52.182;4.474;2022-09-02T06:17:43;101675.16;;;16.09;58.82
72612;BME280;60655;52.182;4.474;2022-09-02T06:19:44;101669.81;;;16.09;59.54
72612;BME280;60655;52.182;4.474;2022-09-02T06:21:46;101670.97;;;16.25;58.94
72612;BME280;60655;52.182;4.474;2022-09-02T06:23:47;101670.38;;;16.23;60.05
72612;BME280;60655;52.182;4.474;2022-09-02T06:25:48;101666.75;;;16.29;58.88
72612;BME280;60655;52.182;4.474;2022-09-02T06:27:49;101663.03;;;16.30;58.89
72612;BME280;60655;52.182;4.474;2022-09-02T06:29:50;101666.53;;;16.31;58.92
72612;BME280;60655;52.182;4.474;2022-09-02T06:31:51;101657.56;;;16.37;58.38
72612;BME280;60655;52.182;4.474;2022-09-02T06:33:54;101651.38;;;16.25;58.56
72612;BME280;60655;52.182;4.474;2022-09-02T06:35:55;101661.41;;;16.41;58.73
72612;BME280;60655;52.182;4.474;2022-09-02T06:37:57;101655.34;;;16.34;58.39
72612;BME280;60655;52.182;4.474;2022-09-02T06:40:00;101662.31;;;16.46;58.75
72612;BME280;60655;52.182;4.474;2022-09-02T06:42:01;101658.84;;;16.69;58.07
72612;BME280;60655;52.182;4.474;2022-09-02T06:44:04;101644.00;;;16.55;58.34
72612;BME280;60655;52.182;4.474;2022-09-02T06:46:06;101658.13;;;16.74;58.15
72612;BME280;60655;52.182;4.474;2022-09-02T06:48:09;101657.63;;;16.88;57.91
72612;BME280;60655;52.182;4.474;2022-09-02T06:50:10;101664.28;;;16.86;57.70
72612;BME280;60655;52.182;4.474;2022-09-02T06:52:12;101660.88;;;16.91;57.90
72612;BME280;60655;52.182;4.474;2022-09-02T06:54:16;101657.59;;;17.00;56.68
72612;BME280;60655;52.182;4.474;2022-09-02T06:56:18;101653.88;;;16.90;57.48
72612;BME280;60655;52.182;4.474;2022-09-02T06:58:19;101656.66;;;16.95;58.33
72612;BME280;60655;52.182;4.474;2022-09-02T07:00:20;101666.34;;;16.96;57.32
72612;BME280;60655;52.182;4.474;2022-09-02T07:02:21;101661.63;;;17.14;57.03
72612;BME280;60655;52.182;4.474;2022-09-02T07:04:22;101652.88;;;17.07;57.29
72612;BME280;60655;52.182;4.474;2022-09-02T07:06:47;101651.22;;;17.18;56.94
72612;BME280;60655;52.182;4.474;2022-09-02T07:08:48;101648.50;;;17.30;56.57
72612;BME280;60655;52.182;4.474;2022-09-02T07:10:49;101638.22;;;17.27;57.40
72612;BME280;60655;52.182;4.474;2022-09-02T07:12:50;101639.56;;;17.12;57.97
72612;BME280;60655;52.182;4.474;2022-09-02T07:14:52;101640.91;;;17.27;56.64
72612;BME280;60655;52.182;4.474;2022-09-02T07:16:54;101646.91;;;17.34;56.35
72612;BME280;60655;52.182;4.474;2022-09-02T07:18:57;101636.94;;;17.46;56.38
72612;BME280;60655;52.182;4.474;2022-09-02T07:21:00;101632.63;;;17.28;55.96
72612;BME280;60655;52.182;4.474;2022-09-02T07:23:02;101640.00;;;17.38;56.64
72612;BME280;60655;52.182;4.474;2022-09-02T07:25:04;101647.53;;;17.52;56.31
72612;BME280;60655;52.182;4.474;2022-09-02T07:27:06;101648.22;;;17.60;56.22
72612;BME280;60655;52.182;4.474;2022-09-02T07:29:08;101640.34;;;17.70;55.40
72612;BME280;60655;52.182;4.474;2022-09-02T07:31:10;101639.53;;;17.69;55.77
72612;BME280;60655;52.182;4.474;2022-09-02T07:33:12;101636.09;;;17.74;55.70
72612;BME280;60655;52.182;4.474;2022-09-02T07:35:14;101632.41;;;17.63;56.50
72612;BME280;60655;52.182;4.474;2022-09-02T07:37:15;101628.53;;;17.71;55.79
72612;BME280;60655;52.182;4.474;2022-09-02T07:39:17;101630.06;;;17.67;55.01
72612;BME280;60655;52.182;4.474;2022-09-02T07:41:18;101627.97;;;17.69;54.30
72612;BME280;60655;52.182;4.474;2022-09-02T07:43:20;101625.75;;;17.66;54.96
72612;BME280;60655;52.182;4.474;2022-09-02T07:45:21;101629.03;;;17.84;55.69
72612;BME280;60655;52.182;4.474;2022-09-02T07:47:22;101625.94;;;17.76;55.22
72612;BME280;60655;52.182;4.474;2022-09-02T07:49:23;101621.53;;;17.86;54.40
72612;BME280;60655;52.182;4.474;2022-09-02T07:51:24;101617.22;;;17.85;54.55
72612;BME280;60655;52.182;4.474;2022-09-02T07:53:26;101617.47;;;17.84;54.19
72612;BME280;60655;52.182;4.474;2022-09-02T07:55:27;101627.72;;;17.87;54.95
72612;BME280;60655;52.182;4.474;2022-09-02T07:57:30;101626.44;;;17.90;54.32
72612;BME280;60655;52.182;4.474;2022-09-02T07:59:31;101623.47;;;18.08;54.17
72612;BME280;60655;52.182;4.474;2022-09-02T08:01:32;101630.31;;;18.15;54.24
72612;BME280;60655;52.182;4.474;2022-09-02T08:03:35;101615.34;;;18.25;53.39
72612;BME280;60655;52.182;4.474;2022-09-02T08:05:36;101623.34;;;18.36;53.80
72612;BME280;60655;52.182;4.474;2022-09-02T08:07:38;101616.81;;;18.32;53.16
72612;BME280;60655;52.182;4.474;2022-09-02T08:09:39;101620.31;;;18.33;53.34
72612;BME280;60655;52.182;4.474;2022-09-02T08:11:42;101613.81;;;18.29;54.59
72612;BME280;60655;52.182;4.474;2022-09-02T08:13:45;101608.69;;;18.49;54.06
72612;BME280;60655;52.182;4.474;2022-09-02T08:15:46;101615.44;;;18.51;52.68
72612;BME280;60655;52.182;4.474;2022-09-02T08:17:48;101616.81;;;18.54;53.55
72612;BME280;60655;52.182;4.474;2022-09-02T08:19:49;101614.22;;;18.59;53.69
72612;BME280;60655;52.182;4.474;2022-09-02T08:21:50;101613.38;;;18.75;52.97
72612;BME280;60655;52.182;4.474;2022-09-02T08:23:51;101607.19;;;18.75;53.03
72612;BME280;60655;52.182;4.474;2022-09-02T08:25:52;101621.78;;;18.84;52.59
72612;BME280;60655;52.182;4.474;2022-09-02T08:27:53;101610.22;;;18.83;51.93
72612;BME280;60655;52.182;4.474;2022-09-02T08:29:54;101610.84;;;18.91;52.75
72612;BME280;60655;52.182;4.474;2022-09-02T08:31:55;101610.28;;;18.88;52.27
72612;BME280;60655;52.182;4.474;2022-09-02T08:33:57;101608.16;;;18.91;51.73
72612;BME280;60655;52.182;4.474;2022-09-02T08:36:06;101616.84;;;18.98;51.43
72612;BME280;60655;52.182;4.474;2022-09-02T08:38:09;101609.59;;;18.98;53.28
72612;BME280;60655;52.182;4.474;2022-09-02T08:40:35;101614.25;;;19.08;53.56
72612;BME280;60655;52.182;4.474;2022-09-02T08:42:41;101605.56;;;19.01;52.68
72612;BME280;60655;52.182;4.474;2022-09-02T08:44:44;101603.13;;;19.26;51.66
72612;BME280;60655;52.182;4.474;2022-09-02T08:46:45;101596.94;;;19.26;52.54
72612;BME280;60655;52.182;4.474;2022-09-02T08:49:01;101592.97;;;19.33;52.47
72612;BME280;60655;52.182;4.474;2022-09-02T08:51:10;101604.03;;;19.37;52.49
72612;BME280;60655;52.182;4.474;2022-09-02T08:53:24;101599.69;;;19.36;52.92
72612;BME280;60655;52.182;4.474;2022-09-02T08:55:35;101604.00;;;19.32;52.44
72612;BME280;60655;52.182;4.474;2022-09-02T08:57:40;101593.03;;;19.43;51.89
72612;BME280;60655;52.182;4.474;2022-09-02T08:59:44;101596.38;;;19.50;52.45
72612;BME280;60655;52.182;4.474;2022-09-02T09:06:27;101585.09;;;19.53;52.70
72612;BME280;60655;52.182;4.474;2022-09-02T09:08:51;101593.84;;;19.71;52.99
72612;BME280;60655;52.182;4.474;2022-09-02T09:15:51;101588.31;;;19.87;52.25
72612;BME280;60655;52.182;4.474;2022-09-02T09:18:00;101583.69;;;19.83;52.41
72612;BME280;60655;52.182;4.474;2022-09-02T09:20:08;101576.44;;;19.88;52.37
72612;BME280;60655;52.182;4.474;2022-09-02T09:22:12;101579.44;;;19.92;52.41
72612;BME280;60655;52.182;4.474;2022-09-02T09:26:38;101580.16;;;20.30;51.11
72612;BME280;60655;52.182;4.474;2022-09-02T09:28:43;101578.31;;;20.35;51.14
72612;BME280;60655;52.182;4.474;2022-09-02T09:30:44;101569.16;;;20.36;51.44
72612;BME280;60655;52.182;4.474;2022-09-02T09:32:48;101579.22;;;20.46;50.82
72612;BME280;60655;52.182;4.474;2022-09-02T09:36:53;101573.03;;;20.55;50.66
72612;BME280;60655;52.182;4.474;2022-09-02T09:38:55;101578.72;;;20.64;50.36
72612;BME280;60655;52.182;4.474;2022-09-02T09:41:22;101578.19;;;20.62;50.35
72612;BME280;60655;52.182;4.474;2022-09-02T09:43:30;101575.97;;;20.54;49.77
72612;BME280;60655;52.182;4.474;2022-09-02T09:47:42;101564.66;;;20.57;50.58
72612;BME280;60655;52.182;4.474;2022-09-02T09:49:48;101572.53;;;20.69;50.53
72612;BME280;60655;52.182;4.474;2022-09-02T09:51:53;101573.06;;;20.66;50.54
72612;BME280;60655;52.182;4.474;2022-09-02T09:54:14;101572.81;;;20.72;50.24
72612;BME280;60655;52.182;4.474;2022-09-02T09:58:17;101566.91;;;20.85;50.58
72612;BME280;60655;52.182;4.474;2022-09-02T10:00:30;101563.41;;;20.95;51.05
72612;BME280;60655;52.182;4.474;2022-09-02T10:02:33;101559.66;;;21.06;50.22
72612;BME280;60655;52.182;4.474;2022-09-02T10:04:33;101558.03;;;21.10;49.82
72612;BME280;60655;52.182;4.474;2022-09-02T10:06:37;101562.63;;;21.00;49.86
72612;BME280;60655;52.182;4.474;2022-09-02T10:08:52;101561.53;;;20.96;50.24
72612;BME280;60655;52.182;4.474;2022-09-02T10:11:03;101562.88;;;20.93;49.70
72612;BME280;60655;52.182;4.474;2022-09-02T10:13:23;101556.66;;;20.93;50.20
72612;BME280;60655;52.182;4.474;2022-09-02T10:15:47;101556.41;;;21.09;50.11
72612;BME280;60655;52.182;4.474;2022-09-02T10:20:24;101565.63;;;21.39;49.54
72612;BME280;60655;52.182;4.474;2022-09-02T10:27:15;101550.47;;;21.73;49.06
72612;BME280;60655;52.182;4.474;2022-09-02T10:36:16;101531.38;;;22.39;47.07
72612;BME280;60655;52.182;4.474;2022-09-02T10:40:37;101531.00;;;22.56;46.41
72612;BME280;60655;52.182;4.474;2022-09-02T10:57:08;101525.13;;;23.27;45.46
72612;BME280;60655;52.182;4.474;2022-09-02T10:59:18;101524.97;;;23.42;45.11
72612;BME280;60655;52.182;4.474;2022-09-02T11:01:26;101524.41;;;23.45;44.30
72612;BME280;60655;52.182;4.474;2022-09-02T11:03:33;101519.09;;;23.35;44.42
72612;BME280;60655;52.182;4.474;2022-09-02T11:05:53;101521.97;;;23.44;44.94
72612;BME280;60655;52.182;4.474;2022-09-02T11:08:20;101515.06;;;23.62;44.93
72612;BME280;60655;52.182;4.474;2022-09-02T11:10:29;101507.56;;;23.53;44.81
72612;BME280;60655;52.182;4.474;2022-09-02T11:12:38;101511.44;;;23.71;44.73
72612;BME280;60655;52.182;4.474;2022-09-02T11:17:14;101510.38;;;23.96;44.34
72612;BME280;60655;52.182;4.474;2022-09-02T11:21:41;101504.78;;;24.06;44.23
72612;BME280;60655;52.182;4.474;2022-09-02T11:24:03;101496.88;;;24.10;44.51
72612;BME280;60655;52.182;4.474;2022-09-02T11:26:13;101502.84;;;24.12;44.25
72612;BME280;60655;52.182;4.474;2022-09-02T11:28:47;101494.16;;;24.10;43.60
72612;BME280;60655;52.182;4.474;2022-09-02T11:31:06;101495.47;;;24.36;43.64
72612;BME280;60655;52.182;4.474;2022-09-02T11:33:16;101493.00;;;24.40;42.93
72612;BME280;60655;52.182;4.474;2022-09-02T11:35:34;101479.25;;;24.31;42.80
72612;BME280;60655;52.182;4.474;2022-09-02T11:39:59;101482.00;;;24.50;43.28
72612;BME280;60655;52.182;4.474;2022-09-02T11:53:45;101460.78;;;24.84;41.46